sensor_id;sensor_type;location;lat;lon;timestamp;temperature;humidity
21616;DHT22;10970;48.714;9.584;2023-02-01T00:00:15;4.40;99.90
21616;DHT22;10970;48.714;9.584;2023-02-01T00:02:41;4.40;99.90
21616;DHT22;10970;48.714;9.584;2023-02-01T00:05:10;4.40;99.90
21616;DHT22;10970;48.714;9.584;2023-02-01T00:07:36;4.40;99.90
21616;DHT22;10970;48.714;9.584;2023-02-01T00:10:06;4.40;99.90
21616;DHT22;10970;48.714;9.584;2023-02-01T00:12:32;4.40;99.90
21616;DHT22;10970;48.714;9.584;2023-02-01T00:14:58;4.40;99.90
21616;DHT22;10970;48.714;9.584;2023-02-01T00:17:24;4.40;99.90
21616;DHT22;10970;48.714;9.584;2023-02-01T00:19:50;4.30;99.90
21616;DHT22;10970;48.714;9.584;2023-02-01T00:22:15;4.40;99.90
21616;DHT22;10970;48.714;9.584;2023-02-01T00:24:41;4.30;99.90
21616;DHT22;10970;48.714;9.584;2023-02-01T00:27:07;4.30;99.90
21616;DHT22;10970;48.714;9.584;2023-02-01T00:29:32;4.30;99.90
21616;DHT22;10970;48.714;9.584;2023-02-01T00:31:58;4.30;99.90
21616;DHT22;10970;48.714;9.584;2023-02-01T00:34:24;4.20;99.90
21616;DHT22;10970;48.714;9.584;2023-02-01T00:36:49;4.20;99.90
21616;DHT22;10970;48.714;9.584;2023-02-01T00:39:15;4.20;99.90
21616;DHT22;10970;48.714;9.584;2023-02-01T00:41:41;4.20;99.90
21616;DHT22;10970;48.714;9.584;2023-02-01T00:44:07;4.20;99.90
21616;DHT22;10970;48.714;9.584;2023-02-01T00:46:33;4.10;99.90
21616;DHT22;10970;48.714;9.584;2023-02-01T00:48:58;4.10;99.90
21616;DHT22;10970;48.714;9.584;2023-02-01T00:51:26;4.10;99.90
21616;DHT22;10970;48.714;9.584;2023-02-01T00:53:52;4.10;99.90
21616;DHT22;10970;48.714;9.584;2023-02-01T00:56:19;4.10;99.90
21616;DHT22;10970;48.714;9.584;2023-02-01T00:58:44;4.20;99.90
21616;DHT22;10970;48.714;9.584;2023-02-01T01:01:11;4.10;99.90
21616;DHT22;10970;48.714;9.584;2023-02-01T01:03:39;4.10;99.90
21616;DHT22;10970;48.714;9.584;2023-02-01T01:06:10;4.10;99.90
21616;DHT22;10970;48.714;9.584;2023-02-01T01:08:36;4.10;99.90
21616;DHT22;10970;48.714;9.584;2023-02-01T01:11:17;4.10;99.90
21616;DHT22;10970;48.714;9.584;2023-02-01T01:13:43;4.20;99.90
21616;DHT22;10970;48.714;9.584;2023-02-01T01:16:11;4.10;99.90
21616;DHT22;10970;48.714;9.584;2023-02-01T01:18:37;4.20;99.90
21616;DHT22;10970;48.714;9.584;2023-02-01T01:21:07;4.20;99.90
21616;DHT22;10970;48.714;9.584;2023-02-01T01:23:33;4.20;99.90
21616;DHT22;10970;48.714;9.584;2023-02-01T01:25:59;4.20;99.90
21616;DHT22;10970;48.714;9.584;2023-02-01T01:28:25;4.20;99.90
21616;DHT22;10970;48.714;9.584;2023-02-01T01:30:50;4.20;99.90
21616;DHT22;10970;48.714;9.584;2023-02-01T01:33:16;4.20;99.90
21616;DHT22;10970;48.714;9.584;2023-02-01T01:35:42;4.20;99.90
21616;DHT22;10970;48.714;9.584;2023-02-01T01:38:09;4.20;99.90
21616;DHT22;10970;48.714;9.584;2023-02-01T01:40:35;4.20;99.90
21616;DHT22;10970;48.714;9.584;2023-02-01T01:43:00;4.20;99.90
21616;DHT22;10970;48.714;9.584;2023-02-01T01:48:01;4.20;99.90
21616;DHT22;10970;48.714;9.584;2023-02-01T01:50:35;4.20;99.90
21616;DHT22;10970;48.714;9.584;2023-02-01T01:53:04;4.20;99.90
21616;DHT22;10970;48.714;9.584;2023-02-01T01:55:32;4.20;99.90
21616;DHT22;10970;48.714;9.584;2023-02-01T01:58:06;4.20;99.90
21616;DHT22;10970;48.714;9.584;2023-02-01T02:00:33;4.20;99.90
21616;DHT22;10970;48.714;9.584;2023-02-01T02:03:07;4.30;99.90
21616;DHT22;10970;48.714;9.584;2023-02-01T02:05:35;4.30;99.90
21616;DHT22;10970;48.714;9.584;2023-02-01T02:08:00;4.30;99.90
21616;DHT22;10970;48.714;9.584;2023-02-01T02:10:27;4.30;99.90
21616;DHT22;10970;48.714;9.584;2023-02-01T02:13:14;4.30;99.90
21616;DHT22;10970;48.714;9.584;2023-02-01T02:18:36;4.30;99.90
21616;DHT22;10970;48.714;9.584;2023-02-01T02:21:16;4.30;99.90
21616;DHT22;10970;48.714;9.584;2023-02-01T02:24:09;4.40;99.90
21616;DHT22;10970;48.714;9.584;2023-02-01T02:34:55;4.30;99.90
21616;DHT22;10970;48.714;9.584;2023-02-01T02:37:30;4.30;99.90
21616;DHT22;10970;48.714;9.584;2023-02-01T02:40:14;4.30;99.90
21616;DHT22;10970;48.714;9.584;2023-02-01T02:42:51;4.30;99.90
21616;DHT22;10970;48.714;9.584;2023-02-01T02:46:04;4.30;99.90
21616;DHT22;10970;48.714;9.584;2023-02-01T02:52:01;4.30;99.90
21616;DHT22;10970;48.714;9.584;2023-02-01T02:54:46;4.40;99.90
21616;DHT22;10970;48.714;9.584;2023-02-01T02:57:22;4.40;99.90
21616;DHT22;10970;48.714;9.584;2023-02-01T03:00:12;4.40;99.90
21616;DHT22;10970;48.714;9.584;2023-02-01T03:02:56;4.40;99.90
21616;DHT22;10970;48.714;9.584;2023-02-01T03:05:46;4.40;99.90
21616;DHT22;10970;48.714;9.584;2023-02-01T03:08:16;4.30;99.90
21616;DHT22;10970;48.714;9.584;2023-02-01T03:13:27;4.40;99.90
21616;DHT22;10970;48.714;9.584;2023-02-01T03:16:03;4.40;99.90
21616;DHT22;10970;48.714;9.584;2023-02-01T03:18:36;4.40;99.90
21616;DHT22;10970;48.714;9.584;2023-02-01T03:21:08;4.40;99.90
21616;DHT22;10970;48.714;9.584;2023-02-01T03:23:36;4.30;99.90
21616;DHT22;10970;48.714;9.584;2023-02-01T03:26:08;4.30;99.90
21616;DHT22;10970;48.714;9.584;2023-02-01T03:28:35;4.30;99.90
21616;DHT22;10970;48.714;9.584;2023-02-01T03:31:02;4.00;99.90
21616;DHT22;10970;48.714;9.584;2023-02-01T03:33:29;4.20;99.90
21616;DHT22;10970;48.714;9.584;2023-02-01T03:36:01;4.20;99.90
21616;DHT22;10970;48.714;9.584;2023-02-01T03:38:38;4.30;99.90
21616;DHT22;10970;48.714;9.584;2023-02-01T03:43:36;4.30;99.90
21616;DHT22;10970;48.714;9.584;2023-02-01T03:46:06;4.30;99.90
21616;DHT22;10970;48.714;9.584;2023-02-01T03:48:35;4.30;99.90
21616;DHT22;10970;48.714;9.584;2023-02-01T03:51:03;4.30;99.90
21616;DHT22;10970;48.714;9.584;2023-02-01T03:53:30;4.30;99.90
21616;DHT22;10970;48.714;9.584;2023-02-01T03:55:57;4.30;99.90
21616;DHT22;10970;48.714;9.584;2023-02-01T03:58:23;4.30;99.90
21616;DHT22;10970;48.714;9.584;2023-02-01T04:00:55;4.30;99.90
21616;DHT22;10970;48.714;9.584;2023-02-01T04:03:21;4.30;99.90
21616;DHT22;10970;48.714;9.584;2023-02-01T04:05:48;4.20;99.90
21616;DHT22;10970;48.714;9.584;2023-02-01T04:08:14;4.30;99.90
21616;DHT22;10970;48.714;9.584;2023-02-01T04:10:39;4.40;99.90
21616;DHT22;10970;48.714;9.584;2023-02-01T04:13:05;4.40;99.90
21616;DHT22;10970;48.714;9.584;2023-02-01T04:15:31;4.40;99.90
21616;DHT22;10970;48.714;9.584;2023-02-01T04:17:56;4.50;99.90
21616;DHT22;10970;48.714;9.584;2023-02-01T04:20:22;4.40;99.90
21616;DHT22;10970;48.714;9.584;2023-02-01T04:22:47;4.50;99.90
21616;DHT22;10970;48.714;9.584;2023-02-01T04:25:13;4.50;99.90
21616;DHT22;10970;48.714;9.584;2023-02-01T04:27:39;4.40;99.90
21616;DHT22;10970;48.714;9.584;2023-02-01T04:30:05;4.40;99.90
21616;DHT22;10970;48.714;9.584;2023-02-01T04:32:35;4.50;99.90
21616;DHT22;10970;48.714;9.584;2023-02-01T04:35:01;4.40;99.90
21616;DHT22;10970;48.714;9.584;2023-02-01T04:37:26;4.40;99.90
21616;DHT22;10970;48.714;9.584;2023-02-01T04:39:52;4.40;99.90
21616;DHT22;10970;48.714;9.584;2023-02-01T04:42:18;4.30;99.90
21616;DHT22;10970;48.714;9.584;2023-02-01T04:44:43;4.30;99.90
21616;DHT22;10970;48.714;9.584;2023-02-01T04:47:09;4.30;99.90
21616;DHT22;10970;48.714;9.584;2023-02-01T04:49:34;4.40;99.90
21616;DHT22;10970;48.714;9.584;2023-02-01T04:52:00;4.40;99.90
21616;DHT22;10970;48.714;9.584;2023-02-01T04:54:26;4.40;99.90
21616;DHT22;10970;48.714;9.584;2023-02-01T04:56:51;4.30;99.90
21616;DHT22;10970;48.714;9.584;2023-02-01T04:59:17;4.30;99.90
21616;DHT22;10970;48.714;9.584;2023-02-01T05:01:42;4.20;99.90
21616;DHT22;10970;48.714;9.584;2023-02-01T05:04:08;4.20;99.90
21616;DHT22;10970;48.714;9.584;2023-02-01T05:06:34;4.30;99.90
21616;DHT22;10970;48.714;9.584;2023-02-01T05:08:59;4.30;99.90
21616;DHT22;10970;48.714;9.584;2023-02-01T05:11:25;4.30;99.90
21616;DHT22;10970;48.714;9.584;2023-02-01T05:14:09;4.20;99.90
21616;DHT22;10970;48.714;9.584;2023-02-01T05:16:35;4.30;99.90
21616;DHT22;10970;48.714;9.584;2023-02-01T05:19:00;4.40;99.90
21616;DHT22;10970;48.714;9.584;2023-02-01T05:21:26;4.40;99.90
21616;DHT22;10970;48.714;9.584;2023-02-01T05:23:52;4.40;99.90
21616;DHT22;10970;48.714;9.584;2023-02-01T05:26:39;4.40;99.90
21616;DHT22;10970;48.714;9.584;2023-02-01T05:29:06;4.50;99.90
21616;DHT22;10970;48.714;9.584;2023-02-01T05:31:32;4.50;99.90
21616;DHT22;10970;48.714;9.584;2023-02-01T05:33:57;4.60;99.90
21616;DHT22;10970;48.714;9.584;2023-02-01T05:36:23;4.60;99.90
21616;DHT22;10970;48.714;9.584;2023-02-01T05:38:49;4.60;99.90
21616;DHT22;10970;48.714;9.584;2023-02-01T05:41:14;4.50;99.90
21616;DHT22;10970;48.714;9.584;2023-02-01T05:43:40;4.60;99.90
21616;DHT22;10970;48.714;9.584;2023-02-01T05:46:06;4.60;99.90
21616;DHT22;10970;48.714;9.584;2023-02-01T05:48:31;4.60;99.90
21616;DHT22;10970;48.714;9.584;2023-02-01T05:50:57;4.60;99.90
21616;DHT22;10970;48.714;9.584;2023-02-01T05:53:22;4.60;99.90
21616;DHT22;10970;48.714;9.584;2023-02-01T05:55:48;4.60;99.90
21616;DHT22;10970;48.714;9.584;2023-02-01T05:58:14;4.60;99.90
21616;DHT22;10970;48.714;9.584;2023-02-01T06:00:40;4.60;99.90
21616;DHT22;10970;48.714;9.584;2023-02-01T06:03:06;4.70;99.90
21616;DHT22;10970;48.714;9.584;2023-02-01T06:05:31;4.70;99.90
21616;DHT22;10970;48.714;9.584;2023-02-01T06:07:57;4.70;99.90
21616;DHT22;10970;48.714;9.584;2023-02-01T06:10:23;4.70;99.90
21616;DHT22;10970;48.714;9.584;2023-02-01T06:12:49;4.70;99.90
21616;DHT22;10970;48.714;9.584;2023-02-01T06:15:15;4.70;99.90
21616;DHT22;10970;48.714;9.584;2023-02-01T06:17:45;4.60;99.90
21616;DHT22;10970;48.714;9.584;2023-02-01T06:20:12;4.60;99.90
21616;DHT22;10970;48.714;9.584;2023-02-01T06:22:38;4.60;99.90
21616;DHT22;10970;48.714;9.584;2023-02-01T06:25:06;4.70;99.90
21616;DHT22;10970;48.714;9.584;2023-02-01T06:27:32;4.60;99.90
21616;DHT22;10970;48.714;9.584;2023-02-01T06:29:58;4.50;99.90
21616;DHT22;10970;48.714;9.584;2023-02-01T06:32:24;4.50;99.90
21616;DHT22;10970;48.714;9.584;2023-02-01T06:34:50;4.50;99.90
21616;DHT22;10970;48.714;9.584;2023-02-01T06:37:18;4.50;99.90
21616;DHT22;10970;48.714;9.584;2023-02-01T06:39:44;4.40;99.90
21616;DHT22;10970;48.714;9.584;2023-02-01T06:42:09;4.40;99.90
21616;DHT22;10970;48.714;9.584;2023-02-01T06:44:35;4.40;99.90
21616;DHT22;10970;48.714;9.584;2023-02-01T06:47:01;4.40;99.90
21616;DHT22;10970;48.714;9.584;2023-02-01T06:49:28;4.40;99.90
21616;DHT22;10970;48.714;9.584;2023-02-01T06:51:53;4.40;99.90
21616;DHT22;10970;48.714;9.584;2023-02-01T06:54:19;4.40;99.90
21616;DHT22;10970;48.714;9.584;2023-02-01T06:56:44;4.50;99.90
21616;DHT22;10970;48.714;9.584;2023-02-01T06:59:10;4.50;99.90
21616;DHT22;10970;48.714;9.584;2023-02-01T07:01:36;4.50;99.90
21616;DHT22;10970;48.714;9.584;2023-02-01T07:04:02;4.50;99.90
21616;DHT22;10970;48.714;9.584;2023-02-01T07:06:28;4.50;99.90
21616;DHT22;10970;48.714;9.584;2023-02-01T07:08:54;4.50;99.90
21616;DHT22;10970;48.714;9.584;2023-02-01T07:11:22;4.50;99.90
21616;DHT22;10970;48.714;9.584;2023-02-01T07:13:48;4.50;99.90
21616;DHT22;10970;48.714;9.584;2023-02-01T07:16:17;4.60;99.90
21616;DHT22;10970;48.714;9.584;2023-02-01T07:18:43;4.60;99.90
21616;DHT22;10970;48.714;9.584;2023-02-01T07:21:09;4.60;99.90
21616;DHT22;10970;48.714;9.584;2023-02-01T07:23:35;4.60;99.90
21616;DHT22;10970;48.714;9.584;2023-02-01T07:26:03;4.60;99.90
21616;DHT22;10970;48.714;9.584;2023-02-01T07:28:31;4.60;99.90
21616;DHT22;10970;48.714;9.584;2023-02-01T07:31:08;4.60;99.90
21616;DHT22;10970;48.714;9.584;2023-02-01T07:33:34;4.60;99.90
21616;DHT22;10970;48.714;9.584;2023-02-01T07:36:02;4.70;99.90
21616;DHT22;10970;48.714;9.584;2023-02-01T07:38:29;4.70;99.90
21616;DHT22;10970;48.714;9.584;2023-02-01T07:41:02;4.70;99.90
21616;DHT22;10970;48.714;9.584;2023-02-01T07:43:29;4.70;99.90
21616;DHT22;10970;48.714;9.584;2023-02-01T07:45:55;4.70;99.90
21616;DHT22;10970;48.714;9.584;2023-02-01T07:48:22;4.70;99.90
21616;DHT22;10970;48.714;9.584;2023-02-01T07:50:48;4.70;99.90
21616;DHT22;10970;48.714;9.584;2023-02-01T07:53:14;4.70;99.90
21616;DHT22;10970;48.714;9.584;2023-02-01T07:55:40;4.70;99.90
21616;DHT22;10970;48.714;9.584;2023-02-01T07:58:06;4.70;99.90
21616;DHT22;10970;48.714;9.584;2023-02-01T08:00:32;4.70;99.90
21616;DHT22;10970;48.714;9.584;2023-02-01T08:03:16;4.70;99.90
21616;DHT22;10970;48.714;9.584;2023-02-01T08:05:42;4.70;99.90
21616;DHT22;10970;48.714;9.584;2023-02-01T08:08:07;4.70;99.90
21616;DHT22;10970;48.714;9.584;2023-02-01T08:10:33;4.70;99.90
21616;DHT22;10970;48.714;9.584;2023-02-01T08:13:01;4.70;99.90
21616;DHT22;10970;48.714;9.584;2023-02-01T08:15:30;4.70;99.90
21616;DHT22;10970;48.714;9.584;2023-02-01T08:17:55;4.70;99.90
21616;DHT22;10970;48.714;9.584;2023-02-01T08:20:22;4.80;99.90
21616;DHT22;10970;48.714;9.584;2023-02-01T08:22:50;4.80;99.90
21616;DHT22;10970;48.714;9.584;2023-02-01T08:25:16;4.80;99.90
21616;DHT22;10970;48.714;9.584;2023-02-01T08:27:41;4.80;99.90
21616;DHT22;10970;48.714;9.584;2023-02-01T08:30:08;4.90;99.90
21616;DHT22;10970;48.714;9.584;2023-02-01T08:32:34;4.90;99.90
21616;DHT22;10970;48.714;9.584;2023-02-01T08:35:01;5.00;99.90
21616;DHT22;10970;48.714;9.584;2023-02-01T08:37:26;4.90;99.90
21616;DHT22;10970;48.714;9.584;2023-02-01T08:39:52;5.00;99.90
21616;DHT22;10970;48.714;9.584;2023-02-01T08:42:18;5.10;99.90
21616;DHT22;10970;48.714;9.584;2023-02-01T08:45:04;5.20;99.90
21616;DHT22;10970;48.714;9.584;2023-02-01T08:47:30;5.30;99.90
21616;DHT22;10970;48.714;9.584;2023-02-01T08:49:56;5.40;99.90
21616;DHT22;10970;48.714;9.584;2023-02-01T08:52:22;5.50;99.90
21616;DHT22;10970;48.714;9.584;2023-02-01T08:54:48;5.50;99.90
21616;DHT22;10970;48.714;9.584;2023-02-01T08:57:14;5.50;99.90
21616;DHT22;10970;48.714;9.584;2023-02-01T08:59:39;5.40;99.90
21616;DHT22;10970;48.714;9.584;2023-02-01T09:02:05;5.40;99.90
21616;DHT22;10970;48.714;9.584;2023-02-01T09:04:31;5.40;99.90
21616;DHT22;10970;48.714;9.584;2023-02-01T09:06:57;5.40;99.90
21616;DHT22;10970;48.714;9.584;2023-02-01T09:09:24;5.50;99.90
21616;DHT22;10970;48.714;9.584;2023-02-01T09:11:50;5.50;99.90
21616;DHT22;10970;48.714;9.584;2023-02-01T09:14:16;5.50;99.90
21616;DHT22;10970;48.714;9.584;2023-02-01T09:16:42;5.60;99.90
21616;DHT22;10970;48.714;9.584;2023-02-01T09:19:07;5.60;99.90
21616;DHT22;10970;48.714;9.584;2023-02-01T09:21:33;5.70;99.90
21616;DHT22;10970;48.714;9.584;2023-02-01T09:23:59;5.70;99.90
21616;DHT22;10970;48.714;9.584;2023-02-01T09:26:25;5.70;99.90
21616;DHT22;10970;48.714;9.584;2023-02-01T09:28:51;5.70;99.90
21616;DHT22;10970;48.714;9.584;2023-02-01T09:31:17;5.60;99.90
21616;DHT22;10970;48.714;9.584;2023-02-01T09:33:42;5.60;99.90
21616;DHT22;10970;48.714;9.584;2023-02-01T09:36:08;5.50;99.90
21616;DHT22;10970;48.714;9.584;2023-02-01T09:38:34;5.50;99.90
21616;DHT22;10970;48.714;9.584;2023-02-01T09:41:00;5.50;99.90
21616;DHT22;10970;48.714;9.584;2023-02-01T09:48:27;5.50;99.90
21616;DHT22;10970;48.714;9.584;2023-02-01T09:50:56;5.40;99.90
21616;DHT22;10970;48.714;9.584;2023-02-01T09:55:53;5.30;99.90
21616;DHT22;10970;48.714;9.584;2023-02-01T10:01:08;5.20;99.90
21616;DHT22;10970;48.714;9.584;2023-02-01T10:03:36;5.30;99.90
21616;DHT22;10970;48.714;9.584;2023-02-01T10:22:44;5.80;99.90
21616;DHT22;10970;48.714;9.584;2023-02-01T10:25:26;5.70;99.90
21616;DHT22;10970;48.714;9.584;2023-02-01T10:27:54;5.60;99.90
21616;DHT22;10970;48.714;9.584;2023-02-01T10:30:25;5.70;99.90
21616;DHT22;10970;48.714;9.584;2023-02-01T10:33:02;5.70;99.90
21616;DHT22;10970;48.714;9.584;2023-02-01T10:35:34;5.70;99.90
21616;DHT22;10970;48.714;9.584;2023-02-01T10:38:02;5.70;99.90
21616;DHT22;10970;48.714;9.584;2023-02-01T10:40:31;5.70;99.90
21616;DHT22;10970;48.714;9.584;2023-02-01T10:42:59;5.70;99.90
21616;DHT22;10970;48.714;9.584;2023-02-01T10:45:28;5.70;99.90
21616;DHT22;10970;48.714;9.584;2023-02-01T10:47:56;5.80;99.90
21616;DHT22;10970;48.714;9.584;2023-02-01T10:55:50;5.90;99.90
21616;DHT22;10970;48.714;9.584;2023-02-01T10:58:27;6.10;99.90
21616;DHT22;10970;48.714;9.584;2023-02-01T11:00:56;6.20;99.90
21616;DHT22;10970;48.714;9.584;2023-02-01T11:09:39;6.30;99.90
21616;DHT22;10970;48.714;9.584;2023-02-01T11:14:37;6.10;99.90
21616;DHT22;10970;48.714;9.584;2023-02-01T11:17:17;5.90;99.90
21616;DHT22;10970;48.714;9.584;2023-02-01T11:20:44;6.00;99.90
21616;DHT22;10970;48.714;9.584;2023-02-01T11:22:52;6.00;99.90
21616;DHT22;10970;48.714;9.584;2023-02-01T11:25:18;6.00;99.90
21616;DHT22;10970;48.714;9.584;2023-02-01T11:27:44;6.00;99.90
21616;DHT22;10970;48.714;9.584;2023-02-01T11:30:31;6.10;99.90
21616;DHT22;10970;48.714;9.584;2023-02-01T11:32:57;6.20;99.90
21616;DHT22;10970;48.714;9.584;2023-02-01T11:35:24;6.20;99.90
21616;DHT22;10970;48.714;9.584;2023-02-01T11:37:58;6.20;99.90
21616;DHT22;10970;48.714;9.584;2023-02-01T11:40:34;6.30;99.90
21616;DHT22;10970;48.714;9.584;2023-02-01T11:45:33;6.20;99.90
21616;DHT22;10970;48.714;9.584;2023-02-01T11:48:00;6.20;99.90
21616;DHT22;10970;48.714;9.584;2023-02-01T12:03:00;6.00;99.90
21616;DHT22;10970;48.714;9.584;2023-02-01T12:05:47;5.90;99.90
21616;DHT22;10970;48.714;9.584;2023-02-01T12:11:30;6.20;99.90
21616;DHT22;10970;48.714;9.584;2023-02-01T12:14:18;6.30;99.90
21616;DHT22;10970;48.714;9.584;2023-02-01T12:23:01;6.10;99.90
21616;DHT22;10970;48.714;9.584;2023-02-01T12:25:43;6.20;99.90
21616;DHT22;10970;48.714;9.584;2023-02-01T12:28:30;6.20;99.90
21616;DHT22;10970;48.714;9.584;2023-02-01T12:36:29;6.20;99.90
21616;DHT22;10970;48.714;9.584;2023-02-01T12:41:40;6.10;99.90
21616;DHT22;10970;48.714;9.584;2023-02-01T12:44:32;6.00;99.90
21616;DHT22;10970;48.714;9.584;2023-02-01T12:52:35;6.10;99.90
21616;DHT22;10970;48.714;9.584;2023-02-01T12:55:33;6.10;99.90
21616;DHT22;10970;48.714;9.584;2023-02-01T12:58:20;6.10;99.90
21616;DHT22;10970;48.714;9.584;2023-02-01T13:00:58;6.10;99.90
21616;DHT22;10970;48.714;9.584;2023-02-01T13:06:15;6.00;99.90
21616;DHT22;10970;48.714;9.584;2023-02-01T13:09:09;6.00;99.90
21616;DHT22;10970;48.714;9.584;2023-02-01T13:11:42;6.00;99.90
21616;DHT22;10970;48.714;9.584;2023-02-01T13:14:24;6.00;99.90
21616;DHT22;10970;48.714;9.584;2023-02-01T13:17:05;6.00;99.90
21616;DHT22;10970;48.714;9.584;2023-02-01T13:19:56;6.00;99.90
21616;DHT22;10970;48.714;9.584;2023-02-01T13:22:28;6.00;99.90
21616;DHT22;10970;48.714;9.584;2023-02-01T13:25:00;6.00;99.90
21616;DHT22;10970;48.714;9.584;2023-02-01T13:27:29;5.90;99.90
21616;DHT22;10970;48.714;9.584;2023-02-01T13:30:11;5.90;99.90
21616;DHT22;10970;48.714;9.584;2023-02-01T13:40:44;5.80;99.90
21616;DHT22;10970;48.714;9.584;2023-02-01T13:43:12;5.80;99.90
21616;DHT22;10970;48.714;9.584;2023-02-01T13:45:47;5.70;99.90
21616;DHT22;10970;48.714;9.584;2023-02-01T13:48:31;5.80;99.90
21616;DHT22;10970;48.714;9.584;2023-02-01T13:50:59;5.80;99.90
21616;DHT22;10970;48.714;9.584;2023-02-01T13:53:31;5.80;99.90
21616;DHT22;10970;48.714;9.584;2023-02-01T13:56:00;5.80;99.90
21616;DHT22;10970;48.714;9.584;2023-02-01T13:58:38;5.80;99.90
21616;DHT22;10970;48.714;9.584;2023-02-01T14:03:57;5.90;99.90
21616;DHT22;10970;48.714;9.584;2023-02-01T14:09:31;5.80;99.90
21616;DHT22;10970;48.714;9.584;2023-02-01T14:15:25;5.80;99.90
21616;DHT22;10970;48.714;9.584;2023-02-01T14:17:52;5.70;99.90
21616;DHT22;10970;48.714;9.584;2023-02-01T14:20:43;5.70;99.90
21616;DHT22;10970;48.714;9.584;2023-02-01T14:23:14;5.70;99.90
21616;DHT22;10970;48.714;9.584;2023-02-01T14:25:41;5.70;99.90
21616;DHT22;10970;48.714;9.584;2023-02-01T14:28:34;5.70;99.90
21616;DHT22;10970;48.714;9.584;2023-02-01T14:31:00;5.60;99.90
21616;DHT22;10970;48.714;9.584;2023-02-01T14:33:41;5.60;99.90
21616;DHT22;10970;48.714;9.584;2023-02-01T14:36:11;5.60;99.90
21616;DHT22;10970;48.714;9.584;2023-02-01T14:38:39;5.60;99.90
21616;DHT22;10970;48.714;9.584;2023-02-01T14:49:39;5.70;99.90
21616;DHT22;10970;48.714;9.584;2023-02-01T14:52:14;5.70;99.90
21616;DHT22;10970;48.714;9.584;2023-02-01T14:54:53;5.60;99.90
21616;DHT22;10970;48.714;9.584;2023-02-01T14:57:24;5.60;99.90
21616;DHT22;10970;48.714;9.584;2023-02-01T14:59:59;5.60;99.90
21616;DHT22;10970;48.714;9.584;2023-02-01T15:02:26;5.60;99.90
21616;DHT22;10970;48.714;9.584;2023-02-01T15:04:56;5.60;99.90
21616;DHT22;10970;48.714;9.584;2023-02-01T15:07:24;5.50;99.90
21616;DHT22;10970;48.714;9.584;2023-02-01T15:09:52;5.60;99.90
21616;DHT22;10970;48.714;9.584;2023-02-01T15:12:24;5.50;99.90
21616;DHT22;10970;48.714;9.584;2023-02-01T15:20:22;5.50;99.90
21616;DHT22;10970;48.714;9.584;2023-02-01T15:23:02;5.50;99.90
21616;DHT22;10970;48.714;9.584;2023-02-01T15:25:34;5.50;99.90
21616;DHT22;10970;48.714;9.584;2023-02-01T15:28:02;5.50;99.90
21616;DHT22;10970;48.714;9.584;2023-02-01T15:30:33;5.50;99.90
21616;DHT22;10970;48.714;9.584;2023-02-01T15:33:27;5.50;99.90
21616;DHT22;10970;48.714;9.584;2023-02-01T15:36:17;5.50;99.90
21616;DHT22;10970;48.714;9.584;2023-02-01T15:38:43;5.50;99.90
21616;DHT22;10970;48.714;9.584;2023-02-01T15:46:55;5.50;99.90
21616;DHT22;10970;48.714;9.584;2023-02-01T15:49:31;5.50;99.90
21616;DHT22;10970;48.714;9.584;2023-02-01T15:51:59;5.50;99.90
21616;DHT22;10970;48.714;9.584;2023-02-01T15:54:30;5.50;99.90
21616;DHT22;10970;48.714;9.584;2023-02-01T15:56:58;5.50;99.90
21616;DHT22;10970;48.714;9.584;2023-02-01T15:59:31;5.40;99.90
21616;DHT22;10970;48.714;9.584;2023-02-01T16:01:58;5.40;99.90
21616;DHT22;10970;48.714;9.584;2023-02-01T16:04:26;5.40;99.90
21616;DHT22;10970;48.714;9.584;2023-02-01T16:07:03;5.40;99.90
21616;DHT22;10970;48.714;9.584;2023-02-01T16:09:40;5.30;99.90
21616;DHT22;10970;48.714;9.584;2023-02-01T16:15:06;5.30;99.90
21616;DHT22;10970;48.714;9.584;2023-02-01T16:17:32;5.30;99.90
21616;DHT22;10970;48.714;9.584;2023-02-01T16:19:58;5.40;99.90
21616;DHT22;10970;48.714;9.584;2023-02-01T16:22:24;5.30;99.90
21616;DHT22;10970;48.714;9.584;2023-02-01T16:24:50;5.30;99.90
21616;DHT22;10970;48.714;9.584;2023-02-01T16:27:16;5.30;99.90
21616;DHT22;10970;48.714;9.584;2023-02-01T16:29:41;5.30;99.90
21616;DHT22;10970;48.714;9.584;2023-02-01T16:32:18;5.30;99.90
21616;DHT22;10970;48.714;9.584;2023-02-01T16:34:45;5.30;99.90
21616;DHT22;10970;48.714;9.584;2023-02-01T16:37:23;5.40;99.90
21616;DHT22;10970;48.714;9.584;2023-02-01T16:39:49;5.30;99.90
21616;DHT22;10970;48.714;9.584;2023-02-01T16:42:15;5.30;99.90
21616;DHT22;10970;48.714;9.584;2023-02-01T16:44:42;5.30;99.90
21616;DHT22;10970;48.714;9.584;2023-02-01T16:47:16;5.30;99.90
21616;DHT22;10970;48.714;9.584;2023-02-01T16:49:42;5.40;99.90
21616;DHT22;10970;48.714;9.584;2023-02-01T16:52:20;5.30;99.90
21616;DHT22;10970;48.714;9.584;2023-02-01T16:54:47;5.30;99.90
21616;DHT22;10970;48.714;9.584;2023-02-01T16:57:15;5.30;99.90
21616;DHT22;10970;48.714;9.584;2023-02-01T16:59:41;5.40;99.90
21616;DHT22;10970;48.714;9.584;2023-02-01T17:02:19;5.30;99.90
21616;DHT22;10970;48.714;9.584;2023-02-01T17:04:45;5.30;99.90
21616;DHT22;10970;48.714;9.584;2023-02-01T17:07:16;5.30;99.90
21616;DHT22;10970;48.714;9.584;2023-02-01T17:09:42;5.40;99.90
21616;DHT22;10970;48.714;9.584;2023-02-01T17:12:29;5.40;99.90
21616;DHT22;10970;48.714;9.584;2023-02-01T17:14:58;5.30;99.90
21616;DHT22;10970;48.714;9.584;2023-02-01T17:17:32;5.20;99.90
21616;DHT22;10970;48.714;9.584;2023-02-01T17:19:58;5.20;99.90
21616;DHT22;10970;48.714;9.584;2023-02-01T17:22:24;5.20;99.90
21616;DHT22;10970;48.714;9.584;2023-02-01T17:24:50;5.20;99.90
21616;DHT22;10970;48.714;9.584;2023-02-01T17:27:17;5.20;99.90
21616;DHT22;10970;48.714;9.584;2023-02-01T17:29:43;5.20;99.90
21616;DHT22;10970;48.714;9.584;2023-02-01T17:32:19;5.30;99.90
21616;DHT22;10970;48.714;9.584;2023-02-01T17:34:46;5.30;99.90
21616;DHT22;10970;48.714;9.584;2023-02-01T17:37:32;5.30;99.90
21616;DHT22;10970;48.714;9.584;2023-02-01T17:39:58;5.30;99.90
21616;DHT22;10970;48.714;9.584;2023-02-01T17:42:26;5.30;99.90
21616;DHT22;10970;48.714;9.584;2023-02-01T17:44:57;5.30;99.90
21616;DHT22;10970;48.714;9.584;2023-02-01T17:47:23;5.30;99.90
21616;DHT22;10970;48.714;9.584;2023-02-01T17:49:49;5.30;99.90
21616;DHT22;10970;48.714;9.584;2023-02-01T17:52:21;5.30;99.90
21616;DHT22;10970;48.714;9.584;2023-02-01T17:54:47;5.30;99.90
21616;DHT22;10970;48.714;9.584;2023-02-01T17:57:15;5.30;99.90
21616;DHT22;10970;48.714;9.584;2023-02-01T17:59:41;5.30;99.90
21616;DHT22;10970;48.714;9.584;2023-02-01T18:02:23;5.30;99.90
21616;DHT22;10970;48.714;9.584;2023-02-01T18:04:49;5.30;99.90
21616;DHT22;10970;48.714;9.584;2023-02-01T18:07:16;5.30;99.90
21616;DHT22;10970;48.714;9.584;2023-02-01T18:09:41;5.30;99.90
21616;DHT22;10970;48.714;9.584;2023-02-01T18:12:18;5.30;99.90
21616;DHT22;10970;48.714;9.584;2023-02-01T18:14:44;5.30;99.90
21616;DHT22;10970;48.714;9.584;2023-02-01T18:17:10;5.30;99.90
21616;DHT22;10970;48.714;9.584;2023-02-01T18:19:37;5.20;99.90
21616;DHT22;10970;48.714;9.584;2023-02-01T18:22:02;5.30;99.90
21616;DHT22;10970;48.714;9.584;2023-02-01T18:24:29;5.30;99.90